createdAt,value
2018-06-30T00:00:53.701Z,99.90
2018-06-30T00:02:57.384Z,99.90
2018-06-30T00:05:01.017Z,99.90
2018-06-30T00:07:05.667Z,99.90
2018-06-30T00:09:09.766Z,99.90
2018-06-30T00:11:13.423Z,99.90
2018-06-30T00:13:16.965Z,99.90
2018-06-30T00:15:20.493Z,99.90
2018-06-30T00:17:24.133Z,99.90
2018-06-30T00:19:27.728Z,99.90
2018-06-30T00:21:31.305Z,99.90
2018-06-30T00:23:34.924Z,99.90
2018-06-30T00:25:38.471Z,99.90
2018-06-30T00:27:41.978Z,99.90
2018-06-30T00:29:45.522Z,99.90
2018-06-30T00:31:49.050Z,99.90
2018-06-30T00:33:52.540Z,99.90
2018-06-30T00:35:56.096Z,99.90
2018-06-30T00:37:59.637Z,99.90
2018-06-30T00:40:03.315Z,99.90
2018-06-30T00:42:06.853Z,99.90
2018-06-30T00:44:10.471Z,99.90
2018-06-30T00:46:14.033Z,99.90
2018-06-30T00:48:17.672Z,99.90
2018-06-30T00:50:21.184Z,99.90
2018-06-30T00:52:24.699Z,99.90
2018-06-30T00:54:28.212Z,99.90
2018-06-30T00:56:31.754Z,99.90
2018-06-30T00:58:35.396Z,99.90
2018-06-30T01:00:40.104Z,99.90
2018-06-30T01:02:43.685Z,99.90
2018-06-30T01:06:50.423Z,99.90
2018-06-30T01:08:54.053Z,99.90
2018-06-30T01:10:57.672Z,99.90
2018-06-30T01:15:04.560Z,99.90
2018-06-30T01:19:11.452Z,99.90
2018-06-30T01:21:14.943Z,99.90
2018-06-30T01:23:18.483Z,99.90
2018-06-30T01:25:21.959Z,99.90
2018-06-30T01:27:25.476Z,99.90
2018-06-30T01:29:28.955Z,99.90
2018-06-30T01:31:32.504Z,99.90
2018-06-30T01:33:36.441Z,99.90
2018-06-30T01:35:39.913Z,99.90
2018-06-30T01:37:43.448Z,99.90
2018-06-30T01:39:48.986Z,99.90
2018-06-30T01:41:52.874Z,99.90
2018-06-30T01:43:56.466Z,99.90
2018-06-30T01:48:03.423Z,99.90
2018-06-30T01:50:06.951Z,99.90
2018-06-30T01:52:10.483Z,99.90
2018-06-30T01:54:14.079Z,99.90
2018-06-30T01:56:17.667Z,99.90
2018-06-30T01:58:21.180Z,99.90
2018-06-30T02:00:24.727Z,99.90
2018-06-30T02:04:31.434Z,99.90
2018-06-30T02:06:35.065Z,99.90
2018-06-30T02:08:38.602Z,99.90
2018-06-30T02:10:42.200Z,99.90
2018-06-30T02:12:45.756Z,99.90
2018-06-30T02:14:49.427Z,99.90
2018-06-30T02:16:53.012Z,99.90
2018-06-30T02:18:56.539Z,99.90
2018-06-30T02:21:00.160Z,99.90
2018-06-30T02:23:03.682Z,99.90
2018-06-30T02:25:07.231Z,99.90
2018-06-30T02:27:10.803Z,99.90
2018-06-30T02:29:14.363Z,99.90
2018-06-30T02:31:17.891Z,99.90
2018-06-30T02:33:21.420Z,99.90
2018-06-30T02:35:24.951Z,99.90
2018-06-30T02:37:28.503Z,99.90
2018-06-30T02:39:32.034Z,99.90
2018-06-30T02:41:36.037Z,99.90
2018-06-30T02:43:39.735Z,99.90
2018-06-30T02:45:43.325Z,99.90
2018-06-30T02:47:46.851Z,99.90
2018-06-30T02:51:53.584Z,99.90
2018-06-30T02:53:57.188Z,99.90
2018-06-30T02:56:00.707Z,99.90
2018-06-30T02:58:04.344Z,99.90
2018-06-30T03:00:11.018Z,99.90
2018-06-30T03:02:14.604Z,99.90
2018-06-30T03:04:18.324Z,99.90
2018-06-30T03:06:21.839Z,99.90
2018-06-30T03:08:25.363Z,99.90
2018-06-30T03:10:28.910Z,99.90
2018-06-30T03:12:32.502Z,99.90
2018-06-30T03:14:36.016Z,99.90
2018-06-30T03:16:39.625Z,99.90
2018-06-30T03:18:43.124Z,99.90
2018-06-30T03:20:46.637Z,99.90
2018-06-30T03:22:50.099Z,99.90
2018-06-30T03:24:53.593Z,99.90
2018-06-30T03:26:57.223Z,99.90
2018-06-30T03:29:00.799Z,99.90
2018-06-30T03:31:04.345Z,99.90
2018-06-30T03:33:07.886Z,99.90
2018-06-30T03:35:11.405Z,99.90
2018-06-30T03:37:14.976Z,99.90
2018-06-30T03:39:18.563Z,99.90
2018-06-30T03:41:22.244Z,99.90
2018-06-30T03:43:25.782Z,99.90
2018-06-30T03:45:30.269Z,99.90
2018-06-30T03:47:33.878Z,99.90
2018-06-30T03:49:37.464Z,99.90
2018-06-30T03:51:41.061Z,99.90
2018-06-30T03:53:45.296Z,99.90
2018-06-30T03:55:48.826Z,99.90
2018-06-30T03:57:52.439Z,99.90
2018-06-30T03:59:56.064Z,99.90
2018-06-30T04:01:59.554Z,99.90
2018-06-30T04:04:03.114Z,99.90
2018-06-30T04:06:07.256Z,99.90
2018-06-30T04:10:14.107Z,99.90
2018-06-30T04:12:17.612Z,99.90
2018-06-30T04:14:21.146Z,99.90
2018-06-30T04:18:27.852Z,99.90
2018-06-30T04:20:31.451Z,99.90
2018-06-30T04:22:35.003Z,99.90
2018-06-30T04:24:38.567Z,99.90
2018-06-30T04:26:43.111Z,99.90
2018-06-30T04:28:46.624Z,99.90
2018-06-30T04:30:50.178Z,99.90
2018-06-30T04:32:53.686Z,99.90
2018-06-30T04:34:57.251Z,99.90
2018-06-30T04:37:00.738Z,99.90
2018-06-30T04:39:06.272Z,99.90
2018-06-30T04:41:09.811Z,99.90
2018-06-30T04:43:13.367Z,99.90
2018-06-30T04:45:16.887Z,99.90
2018-06-30T04:47:20.384Z,99.90
2018-06-30T04:49:24.005Z,99.90
2018-06-30T04:51:27.569Z,99.90
2018-06-30T04:53:31.070Z,99.90
2018-06-30T04:55:34.649Z,99.90
2018-06-30T04:57:38.304Z,99.90
2018-06-30T04:59:41.805Z,99.90
2018-06-30T05:01:45.444Z,99.90
2018-06-30T05:03:49.055Z,99.90
2018-06-30T05:05:52.622Z,99.90
2018-06-30T05:07:56.160Z,99.90
2018-06-30T05:09:59.786Z,99.90
2018-06-30T05:12:03.380Z,99.90
2018-06-30T05:14:07.100Z,99.90
2018-06-30T05:16:10.741Z,99.90
2018-06-30T05:18:14.388Z,99.90
2018-06-30T05:20:17.951Z,99.90
2018-06-30T05:22:21.451Z,99.90
2018-06-30T05:24:25.128Z,99.90
2018-06-30T05:26:28.656Z,99.90
2018-06-30T05:28:32.115Z,99.90
2018-06-30T05:30:35.766Z,99.90
2018-06-30T05:32:39.282Z,99.90
2018-06-30T05:34:42.834Z,99.90
2018-06-30T05:36:46.371Z,99.90
2018-06-30T05:38:49.881Z,99.90
2018-06-30T05:40:53.443Z,99.90
2018-06-30T05:42:57.236Z,99.90
2018-06-30T05:45:00.772Z,99.90
2018-06-30T05:47:04.295Z,99.90
2018-06-30T05:49:07.851Z,99.90
2018-06-30T05:51:11.368Z,99.90
2018-06-30T05:53:14.962Z,99.90
2018-06-30T05:55:18.508Z,99.90
2018-06-30T05:57:22.058Z,99.90
2018-06-30T05:59:25.607Z,99.90
2018-06-30T06:01:29.394Z,99.90
2018-06-30T06:03:32.932Z,99.90
2018-06-30T06:05:37.383Z,99.90
2018-06-30T06:07:41.003Z,99.90
2018-06-30T06:09:44.562Z,99.90
2018-06-30T06:11:48.264Z,99.90
2018-06-30T06:13:51.812Z,99.90
2018-06-30T06:15:55.396Z,99.90
2018-06-30T06:17:58.963Z,99.90
2018-06-30T06:20:02.517Z,99.90
2018-06-30T06:22:06.093Z,99.90
2018-06-30T06:24:09.620Z,99.90
2018-06-30T06:26:13.161Z,99.90
2018-06-30T06:28:16.667Z,99.90
2018-06-30T06:30:26.692Z,99.90
2018-06-30T06:32:30.250Z,99.90
2018-06-30T06:34:34.072Z,99.90
2018-06-30T06:36:37.594Z,99.90
2018-06-30T06:38:41.062Z,99.90
2018-06-30T06:40:44.763Z,99.90
2018-06-30T06:42:49.161Z,99.90
2018-06-30T06:44:52.752Z,99.90
2018-06-30T06:46:56.416Z,99.90
2018-06-30T06:48:59.937Z,99.90
2018-06-30T06:51:03.543Z,99.60
2018-06-30T06:53:07.488Z,98.80
2018-06-30T06:55:11.006Z,98.50
2018-06-30T06:57:14.644Z,99.00
2018-06-30T06:59:18.160Z,98.70
2018-06-30T07:01:21.832Z,98.20
2018-06-30T07:03:25.374Z,97.80
2018-06-30T07:05:28.936Z,97.50
2018-06-30T07:07:32.448Z,98.00
2018-06-30T07:11:40.257Z,95.90
2018-06-30T07:13:43.775Z,95.30
2018-06-30T07:15:47.325Z,94.00
2018-06-30T07:17:50.804Z,94.30
2018-06-30T07:19:54.352Z,94.50
2018-06-30T07:21:57.968Z,94.40
2018-06-30T07:24:01.807Z,93.60
2018-06-30T07:26:05.116Z,92.50
2018-06-30T07:28:08.765Z,93.00
2018-06-30T07:30:12.282Z,91.60
2018-06-30T07:32:15.947Z,90.60
2018-06-30T07:34:19.532Z,90.80
2018-06-30T07:36:23.258Z,90.80
2018-06-30T07:38:26.764Z,91.30
2018-06-30T07:40:30.323Z,90.60
2018-06-30T07:42:33.790Z,90.40
2018-06-30T07:44:37.276Z,90.30
2018-06-30T07:46:40.922Z,89.40
2018-06-30T07:48:44.411Z,88.50
2018-06-30T07:50:47.908Z,90.10
2018-06-30T07:52:51.449Z,89.50
2018-06-30T07:54:55.071Z,90.00
2018-06-30T07:56:58.750Z,88.80
2018-06-30T07:59:02.337Z,87.30
2018-06-30T08:01:05.926Z,86.80
2018-06-30T08:03:09.733Z,89.00
2018-06-30T08:05:13.096Z,89.60
2018-06-30T08:07:16.996Z,88.10
2018-06-30T08:09:20.462Z,90.10
2018-06-30T08:11:24.007Z,88.60
2018-06-30T08:13:27.515Z,86.60
2018-06-30T08:15:31.049Z,84.60
2018-06-30T08:17:34.659Z,86.80
2018-06-30T08:19:38.243Z,84.20
2018-06-30T08:21:41.801Z,84.80
2018-06-30T08:23:45.304Z,86.70
2018-06-30T08:25:48.900Z,87.60
2018-06-30T08:27:52.574Z,88.50
2018-06-30T08:29:56.142Z,87.30
2018-06-30T08:31:59.695Z,89.70
2018-06-30T08:34:03.215Z,87.40
2018-06-30T08:36:06.759Z,84.90
2018-06-30T08:38:10.352Z,83.70
2018-06-30T08:40:13.872Z,84.40
2018-06-30T08:42:17.403Z,85.00
2018-06-30T08:44:20.958Z,84.50
2018-06-30T08:46:24.443Z,84.20
2018-06-30T08:48:28.283Z,83.00
2018-06-30T08:50:31.823Z,82.80
2018-06-30T08:52:35.447Z,81.50
2018-06-30T08:54:38.972Z,81.80
2018-06-30T08:56:42.486Z,80.40
2018-06-30T08:58:46.410Z,80.20
2018-06-30T09:00:50.045Z,80.70
2018-06-30T09:02:53.631Z,79.80
2018-06-30T09:04:57.171Z,81.10
2018-06-30T09:07:00.781Z,79.50
2018-06-30T09:09:06.511Z,80.40
2018-06-30T09:11:10.227Z,80.90
2018-06-30T09:13:13.744Z,84.40
2018-06-30T09:17:20.461Z,81.50
2018-06-30T09:19:23.962Z,82.30
2018-06-30T09:21:27.531Z,82.70
2018-06-30T09:23:31.090Z,81.90
2018-06-30T09:25:34.576Z,82.20
2018-06-30T09:27:38.217Z,81.20
2018-06-30T09:29:41.720Z,80.80
2018-06-30T09:31:45.219Z,79.80
2018-06-30T09:33:48.808Z,80.40
2018-06-30T09:35:52.396Z,79.90
2018-06-30T09:37:55.961Z,80.90
2018-06-30T09:39:59.424Z,78.40
2018-06-30T09:42:02.962Z,80.00
2018-06-30T09:44:07.118Z,80.50
2018-06-30T09:46:10.644Z,79.50
2018-06-30T09:48:14.186Z,80.70
2018-06-30T09:50:17.739Z,82.00
2018-06-30T09:52:21.305Z,80.60
2018-06-30T09:54:24.896Z,78.70
2018-06-30T09:56:28.483Z,79.70
2018-06-30T09:58:31.981Z,78.40
2018-06-30T10:00:38.431Z,79.10
2018-06-30T10:02:41.983Z,79.70
2018-06-30T10:04:45.529Z,79.80
2018-06-30T10:06:49.053Z,77.70
2018-06-30T10:08:52.568Z,75.20
2018-06-30T10:10:56.107Z,76.30
2018-06-30T10:12:59.653Z,77.00
2018-06-30T10:15:03.159Z,76.70
2018-06-30T10:17:06.673Z,77.20
2018-06-30T10:19:10.286Z,77.50
2018-06-30T10:21:13.799Z,76.30
2018-06-30T10:23:17.280Z,75.00
2018-06-30T10:25:20.817Z,73.90
2018-06-30T10:27:24.319Z,75.40
2018-06-30T10:29:27.861Z,76.70
2018-06-30T10:31:31.336Z,77.10
2018-06-30T10:33:34.970Z,77.70
2018-06-30T10:35:38.808Z,78.60
2018-06-30T10:37:42.382Z,78.10
2018-06-30T10:39:45.863Z,77.60
2018-06-30T10:41:49.415Z,77.80
2018-06-30T10:43:52.927Z,76.00
2018-06-30T10:45:56.487Z,75.20
2018-06-30T10:48:00.060Z,74.90
2018-06-30T10:50:03.802Z,73.80
2018-06-30T10:52:07.452Z,73.20
2018-06-30T10:54:10.965Z,73.90
2018-06-30T10:56:14.552Z,73.80
2018-06-30T10:58:18.179Z,73.90
2018-06-30T11:00:21.959Z,73.70
2018-06-30T11:02:25.438Z,74.20
2018-06-30T11:04:28.985Z,74.00
2018-06-30T11:06:32.580Z,71.60
2018-06-30T11:08:36.116Z,70.80
2018-06-30T11:10:39.744Z,70.70
2018-06-30T11:12:43.291Z,70.90
2018-06-30T11:14:46.743Z,70.30
2018-06-30T11:16:50.279Z,71.10
2018-06-30T11:18:53.852Z,70.70
2018-06-30T11:20:57.407Z,70.90
2018-06-30T11:23:00.928Z,72.10
2018-06-30T11:25:04.593Z,70.70
2018-06-30T11:27:08.114Z,71.30
2018-06-30T11:29:11.639Z,70.40
2018-06-30T11:31:15.257Z,70.50
2018-06-30T11:33:18.871Z,69.70
2018-06-30T11:35:22.408Z,68.10
2018-06-30T11:37:25.924Z,68.30
2018-06-30T11:39:29.487Z,68.40
2018-06-30T11:41:32.983Z,67.10
2018-06-30T11:45:39.783Z,67.00
2018-06-30T11:47:43.368Z,66.80
2018-06-30T11:49:46.848Z,66.90
2018-06-30T11:51:50.380Z,67.10
2018-06-30T11:53:53.902Z,68.30
2018-06-30T11:55:57.456Z,66.00
2018-06-30T11:58:00.940Z,67.10
2018-06-30T12:00:05.109Z,64.80
2018-06-30T12:02:09.035Z,63.60
2018-06-30T12:04:12.865Z,64.80
2018-06-30T12:06:16.447Z,66.60
2018-06-30T12:08:19.984Z,65.80
2018-06-30T12:10:23.522Z,66.20
2018-06-30T12:12:27.021Z,65.90
2018-06-30T12:14:30.574Z,66.50
2018-06-30T12:16:34.091Z,62.90
2018-06-30T12:18:37.726Z,63.80
2018-06-30T12:20:41.275Z,64.90
2018-06-30T12:22:44.764Z,64.00
2018-06-30T12:24:48.331Z,65.00
2018-06-30T12:26:51.850Z,63.50
2018-06-30T12:28:55.457Z,62.50
2018-06-30T12:30:58.961Z,63.00
2018-06-30T12:33:02.480Z,62.20
2018-06-30T12:35:06.171Z,61.50
2018-06-30T12:37:09.727Z,62.90
2018-06-30T12:39:13.562Z,62.30
2018-06-30T12:41:16.981Z,63.00
2018-06-30T12:43:20.471Z,61.60
2018-06-30T12:45:23.971Z,61.90
2018-06-30T12:47:27.460Z,61.90
2018-06-30T12:49:30.979Z,61.90
2018-06-30T12:53:37.799Z,63.40
2018-06-30T12:55:41.317Z,64.10
2018-06-30T12:57:44.959Z,63.90
2018-06-30T12:59:48.517Z,62.40
2018-06-30T13:01:52.047Z,62.60
2018-06-30T13:03:55.598Z,62.60
2018-06-30T13:05:59.167Z,63.80
2018-06-30T13:08:02.700Z,62.80
2018-06-30T13:10:06.316Z,62.90
2018-06-30T13:12:10.012Z,62.00
2018-06-30T13:14:13.541Z,60.90
2018-06-30T13:16:17.048Z,59.70
2018-06-30T13:18:20.518Z,59.90
2018-06-30T13:20:24.119Z,59.80
2018-06-30T13:22:27.666Z,60.70
2018-06-30T13:24:31.272Z,61.50
2018-06-30T13:26:34.784Z,60.80
2018-06-30T13:28:38.348Z,62.80
2018-06-30T13:30:41.855Z,63.90
2018-06-30T13:32:45.384Z,63.60
2018-06-30T13:34:48.904Z,63.60
2018-06-30T13:36:53.095Z,64.10
2018-06-30T13:38:56.598Z,63.90
2018-06-30T13:41:00.178Z,63.50
2018-06-30T13:43:03.790Z,64.30
2018-06-30T13:45:08.611Z,63.20
2018-06-30T13:47:12.127Z,63.30
2018-06-30T13:49:15.664Z,61.50
2018-06-30T13:51:19.217Z,60.70
2018-06-30T13:53:22.739Z,62.20
2018-06-30T13:55:26.263Z,62.90
2018-06-30T13:57:29.814Z,62.20
2018-06-30T13:59:33.412Z,62.50
2018-06-30T14:01:37.000Z,64.10
2018-06-30T14:03:40.655Z,64.80
2018-06-30T14:05:44.204Z,64.80
2018-06-30T14:07:47.672Z,65.40
2018-06-30T14:09:51.231Z,64.60
2018-06-30T14:11:54.892Z,63.80
2018-06-30T14:13:58.400Z,63.70
2018-06-30T14:16:01.975Z,65.00
2018-06-30T14:18:05.779Z,64.20
2018-06-30T14:22:13.532Z,63.20
2018-06-30T14:24:17.065Z,63.50
2018-06-30T14:26:20.591Z,63.90
2018-06-30T14:28:24.107Z,63.70
2018-06-30T14:30:27.633Z,63.40
2018-06-30T14:32:31.271Z,63.50
2018-06-30T14:36:37.967Z,62.40
2018-06-30T14:38:41.695Z,61.40
2018-06-30T14:40:45.310Z,62.80
2018-06-30T14:42:48.898Z,61.60
2018-06-30T14:44:52.448Z,62.40
2018-06-30T14:48:59.268Z,64.60
2018-06-30T14:51:02.876Z,64.70
2018-06-30T14:53:06.567Z,63.20
2018-06-30T14:55:10.192Z,62.90
2018-06-30T14:57:13.682Z,62.50
2018-06-30T14:59:17.623Z,62.80
2018-06-30T15:01:21.159Z,62.70
2018-06-30T15:03:24.643Z,63.60
2018-06-30T15:05:28.240Z,62.80
2018-06-30T15:07:31.842Z,63.80
2018-06-30T15:09:35.319Z,63.70
2018-06-30T15:11:38.814Z,64.50
2018-06-30T15:13:42.343Z,64.50
2018-06-30T15:15:45.929Z,64.80
2018-06-30T15:17:49.427Z,65.00
2018-06-30T15:19:53.007Z,65.20
2018-06-30T15:21:56.656Z,65.40
2018-06-30T15:24:00.160Z,66.40
2018-06-30T15:26:03.816Z,66.00
2018-06-30T15:28:07.382Z,65.20
2018-06-30T15:30:11.002Z,65.50
2018-06-30T15:32:14.520Z,65.00
2018-06-30T15:34:18.052Z,63.60
2018-06-30T15:36:21.725Z,63.90
2018-06-30T15:38:25.297Z,62.50
2018-06-30T15:40:28.912Z,63.00
2018-06-30T15:42:38.820Z,62.70
2018-06-30T15:44:42.339Z,62.50
2018-06-30T15:46:45.885Z,61.20
2018-06-30T15:48:49.380Z,60.90
2018-06-30T15:52:56.112Z,62.80
2018-06-30T15:54:59.595Z,63.00
2018-06-30T15:57:03.198Z,63.00
2018-06-30T15:59:06.765Z,61.10
2018-06-30T16:01:10.280Z,61.60
2018-06-30T16:03:13.776Z,62.20
2018-06-30T16:05:17.277Z,61.30
2018-06-30T16:07:20.827Z,62.70
2018-06-30T16:09:24.379Z,61.60
2018-06-30T16:11:27.911Z,59.60
2018-06-30T16:13:31.495Z,56.50
2018-06-30T16:15:35.043Z,55.10
2018-06-30T16:17:38.682Z,53.80
2018-06-30T16:19:42.175Z,51.30
2018-06-30T16:21:45.864Z,51.40
2018-06-30T16:23:49.421Z,52.90
2018-06-30T16:25:53.041Z,53.00
2018-06-30T16:27:56.571Z,51.80
2018-06-30T16:30:00.169Z,51.50
2018-06-30T16:32:03.770Z,52.10
2018-06-30T16:34:07.315Z,53.10
2018-06-30T16:36:11.030Z,54.20
2018-06-30T16:38:14.535Z,54.70
2018-06-30T16:40:18.026Z,56.40
2018-06-30T16:42:21.633Z,57.10
2018-06-30T16:44:25.255Z,58.30
2018-06-30T16:46:28.784Z,59.00
2018-06-30T16:48:32.309Z,59.40
2018-06-30T16:50:35.817Z,61.20
2018-06-30T16:52:39.507Z,61.50
2018-06-30T16:54:43.029Z,62.10
2018-06-30T16:56:46.660Z,62.70
2018-06-30T16:58:50.332Z,61.90
2018-06-30T17:00:53.859Z,61.40
2018-06-30T17:02:57.395Z,61.70
2018-06-30T17:05:00.883Z,62.40
2018-06-30T17:07:04.445Z,61.50
2018-06-30T17:09:12.001Z,61.80
2018-06-30T17:11:15.696Z,61.40
2018-06-30T17:13:19.219Z,62.00
2018-06-30T17:15:22.721Z,61.90
2018-06-30T17:17:26.330Z,62.00
2018-06-30T17:19:29.834Z,62.20
2018-06-30T17:21:34.176Z,62.00
2018-06-30T17:23:37.766Z,62.60
2018-06-30T17:25:41.318Z,62.80
2018-06-30T17:27:44.842Z,61.40
2018-06-30T17:29:48.750Z,61.90
2018-06-30T17:31:52.517Z,61.60
2018-06-30T17:33:56.015Z,62.10
2018-06-30T17:35:59.615Z,61.60
2018-06-30T17:38:03.270Z,62.00
2018-06-30T17:40:06.980Z,62.90
2018-06-30T17:42:10.687Z,63.00
2018-06-30T17:44:14.196Z,63.20
2018-06-30T17:46:17.711Z,62.20
2018-06-30T17:48:21.290Z,62.80
2018-06-30T17:50:24.907Z,63.30
2018-06-30T17:52:28.359Z,63.40
2018-06-30T17:54:31.950Z,62.80
2018-06-30T17:56:35.683Z,62.80
2018-06-30T17:58:39.338Z,63.50
2018-06-30T18:00:42.896Z,64.10
2018-06-30T18:02:46.420Z,64.20
2018-06-30T18:04:49.949Z,63.30
2018-06-30T18:06:53.493Z,63.00
2018-06-30T18:08:57.042Z,63.00
2018-06-30T18:11:00.671Z,63.50
2018-06-30T18:13:04.280Z,63.70
2018-06-30T18:15:07.901Z,63.70
2018-06-30T18:17:11.483Z,63.80
2018-06-30T18:19:14.972Z,63.50
2018-06-30T18:21:18.533Z,63.80
2018-06-30T18:23:22.168Z,64.80
2018-06-30T18:25:25.722Z,64.00
2018-06-30T18:27:29.325Z,64.20
2018-06-30T18:29:32.832Z,64.00
2018-06-30T18:31:36.449Z,63.50
2018-06-30T18:33:40.108Z,64.00
2018-06-30T18:35:43.688Z,64.60
2018-06-30T18:37:47.287Z,64.40
2018-06-30T18:39:50.788Z,64.50
2018-06-30T18:41:54.317Z,64.50
2018-06-30T18:43:57.823Z,64.00
2018-06-30T18:46:01.490Z,64.60
2018-06-30T18:48:05.264Z,63.90
2018-06-30T18:50:08.849Z,64.30
2018-06-30T18:52:12.405Z,64.40
2018-06-30T18:54:15.945Z,64.90
2018-06-30T18:56:19.475Z,64.90
2018-06-30T18:58:23.104Z,64.70
2018-06-30T19:00:26.590Z,64.50
2018-06-30T19:02:30.181Z,64.80
2018-06-30T19:04:33.678Z,64.70
2018-06-30T19:06:37.315Z,65.40
2018-06-30T19:08:40.965Z,64.60
2018-06-30T19:10:44.583Z,64.80
2018-06-30T19:12:48.211Z,64.40
2018-06-30T19:14:51.846Z,64.80
2018-06-30T19:16:55.388Z,65.20
2018-06-30T19:18:59.007Z,63.80
2018-06-30T19:21:02.563Z,64.00
2018-06-30T19:23:06.141Z,62.50
2018-06-30T19:25:09.706Z,63.60
2018-06-30T19:27:13.257Z,63.00
2018-06-30T19:29:16.762Z,63.30
2018-06-30T19:31:20.340Z,64.30
2018-06-30T19:33:30.323Z,65.60
2018-06-30T19:35:33.822Z,66.00
2018-06-30T19:37:37.324Z,66.40
2018-06-30T19:39:41.039Z,65.70
2018-06-30T19:41:44.551Z,63.80
2018-06-30T19:43:48.131Z,62.00
2018-06-30T19:45:51.770Z,59.70
2018-06-30T19:47:55.312Z,61.40
2018-06-30T19:49:58.824Z,59.40
2018-06-30T19:52:02.366Z,59.70
2018-06-30T19:54:06.031Z,59.70
2018-06-30T19:56:09.687Z,54.00
2018-06-30T19:58:13.525Z,53.00
2018-06-30T20:00:17.085Z,52.20
2018-06-30T20:02:20.732Z,51.10
2018-06-30T20:04:24.318Z,52.20
2018-06-30T20:06:27.856Z,51.60
2018-06-30T20:08:31.431Z,52.10
2018-06-30T20:10:35.047Z,50.20
2018-06-30T20:12:38.561Z,50.70
2018-06-30T20:14:42.100Z,50.10
2018-06-30T20:16:45.652Z,50.70
2018-06-30T20:18:49.165Z,50.70
2018-06-30T20:20:52.765Z,52.70
2018-06-30T20:22:56.511Z,51.70
2018-06-30T20:25:00.021Z,50.60
2018-06-30T20:27:03.666Z,51.30
2018-06-30T20:29:07.388Z,51.70
2018-06-30T20:31:10.939Z,52.00
2018-06-30T20:33:14.501Z,51.90
2018-06-30T20:35:18.042Z,52.50
2018-06-30T20:37:21.578Z,52.60
2018-06-30T20:39:25.151Z,53.20
2018-06-30T20:41:28.709Z,54.00
2018-06-30T20:43:32.251Z,53.70
2018-06-30T20:45:35.766Z,53.80
2018-06-30T20:47:39.314Z,55.10
2018-06-30T20:49:42.892Z,55.20
2018-06-30T20:51:46.395Z,55.10
2018-06-30T20:53:49.980Z,55.60
2018-06-30T20:55:53.576Z,55.30
2018-06-30T20:57:57.348Z,55.90
2018-06-30T21:00:00.952Z,56.50
2018-06-30T21:02:04.648Z,56.80
2018-06-30T21:04:08.372Z,57.60
2018-06-30T21:06:12.001Z,57.10
2018-06-30T21:08:15.588Z,57.70
2018-06-30T21:10:19.135Z,57.70
2018-06-30T21:12:22.688Z,56.80
2018-06-30T21:14:26.273Z,56.90
2018-06-30T21:16:29.821Z,57.30
2018-06-30T21:18:33.336Z,56.90
2018-06-30T21:20:36.877Z,55.70
2018-06-30T21:22:40.401Z,56.40
2018-06-30T21:26:47.189Z,55.60
2018-06-30T21:28:50.797Z,54.70
2018-06-30T21:30:54.372Z,54.40
2018-06-30T21:32:57.929Z,52.90
2018-06-30T21:35:01.481Z,52.60
2018-06-30T21:39:10.974Z,52.30
2018-06-30T21:41:14.547Z,51.90
2018-06-30T21:43:18.508Z,52.20
2018-06-30T21:45:22.198Z,52.40
2018-06-30T21:47:25.706Z,51.20
2018-06-30T21:49:29.337Z,51.30
2018-06-30T21:51:32.864Z,51.70
2018-06-30T21:53:36.463Z,51.50
2018-06-30T21:55:39.972Z,51.40
2018-06-30T21:57:43.507Z,51.00
2018-06-30T21:59:47.184Z,51.10
2018-06-30T22:01:50.785Z,51.20
2018-06-30T22:03:55.507Z,52.20
2018-06-30T22:05:59.150Z,51.60
2018-06-30T22:08:02.794Z,50.80
2018-06-30T22:10:07.272Z,51.80
2018-06-30T22:12:10.790Z,52.20
2018-06-30T22:14:14.383Z,52.20
2018-06-30T22:16:17.915Z,52.90
2018-06-30T22:18:21.520Z,52.00
2018-06-30T22:20:25.076Z,53.20
2018-06-30T22:22:28.581Z,52.00
2018-06-30T22:24:32.129Z,51.70
2018-06-30T22:26:35.693Z,51.10
2018-06-30T22:28:39.277Z,52.30
2018-06-30T22:30:42.930Z,51.60
2018-06-30T22:32:46.531Z,52.40
2018-06-30T22:34:50.095Z,53.00
2018-06-30T22:36:53.715Z,52.60
2018-06-30T22:38:58.169Z,52.90
2018-06-30T22:41:01.832Z,51.20
2018-06-30T22:43:05.533Z,52.30
2018-06-30T22:45:09.164Z,52.60
2018-06-30T22:47:12.736Z,52.20
2018-06-30T22:49:16.222Z,52.30
2018-06-30T22:51:19.744Z,52.40
2018-06-30T22:53:23.279Z,51.80
2018-06-30T22:55:26.847Z,52.30
2018-06-30T22:57:30.464Z,52.50
2018-06-30T22:59:34.115Z,52.60
2018-06-30T23:01:37.680Z,52.10
2018-06-30T23:03:41.195Z,52.50
2018-06-30T23:05:44.733Z,53.00
2018-06-30T23:07:48.272Z,52.60
2018-06-30T23:11:55.672Z,52.50
2018-06-30T23:13:59.182Z,53.00
2018-06-30T23:16:02.831Z,53.10
2018-06-30T23:18:06.379Z,52.90
2018-06-30T23:20:10.036Z,52.90
2018-06-30T23:22:13.678Z,53.00
2018-06-30T23:24:17.198Z,53.90
2018-06-30T23:26:20.756Z,53.10
2018-06-30T23:28:24.234Z,53.80
2018-06-30T23:30:28.470Z,53.90
2018-06-30T23:32:31.991Z,52.90
2018-06-30T23:34:35.578Z,52.60
2018-06-30T23:36:39.089Z,52.80
2018-06-30T23:38:42.607Z,53.10
2018-06-30T23:40:46.132Z,52.80
2018-06-30T23:42:49.734Z,52.70
2018-06-30T23:44:53.270Z,53.50
2018-06-30T23:46:56.774Z,53.90
2018-06-30T23:49:00.264Z,53.20
2018-06-30T23:51:03.841Z,52.80
2018-06-30T23:53:07.333Z,53.20
2018-06-30T23:55:10.954Z,54.10
2018-06-30T23:57:14.537Z,53.70
2018-06-30T23:59:18.053Z,54.90
